Marina Lobra — IXVN — position and weather

sailwx.info

Track history (hours):
 
Tides and Currents Weather Stations Pressure Air Temp Water Temp Dewpoint Dewpoint Depression Visibility Wind Speed Wind Dir Waves Ship Positions

Marina Lobra

Last reported at 2015-Jul-08 03:33 UTC. Time now 2015-Jul-08 04:22 UTC.
Position N 40°35' E 014°15'.

Length 56 m; draft 3.2 m.

Type: Ship (hazmat cat C). MMSI: 247188300.

Date/timePositionNaut miles runAvg speedWind from/ knotsBaromVisibWave heightAir tempDewpointWater temp
2015-Jul-08 03:33N 40°35' E 014°15'1 1.4
2015-Jul-08 02:33N 40°33' E 014°14'0 0.0
2015-Jul-08 01:34N 40°33' E 014°14'0 0.0
2015-Jul-08 00:34N 40°33' E 014°14'0 0.0
2015-Jul-07 23:34N 40°33' E 014°14'0 0.0
2015-Jul-07 22:33N 40°33' E 014°14'0 0.0
2015-Jul-07 21:33N 40°33' E 014°14'0 0.0
2015-Jul-07 20:33N 40°33' E 014°14'0 0.0
2015-Jul-07 19:33N 40°33' E 014°14'1 0.8
2015-Jul-07 18:33N 40°34' E 014°15'5 5.5
2015-Jul-07 17:33N 40°39' E 014°17'5 5.3
2015-Jul-07 16:33N 40°45' E 014°17'5 5.0
2015-Jul-07 15:33N 40°50' E 014°18'1 0.8
2015-Jul-07 14:33N 40°50' E 014°17'0 0.0
2015-Jul-07 13:33N 40°50' E 014°17'0 0.0
2015-Jul-07 12:29N 40°50' E 014°17'0 0.0
2015-Jul-07 11:33N 40°50' E 014°17'0 0.0
2015-Jul-07 10:33N 40°50' E 014°17'0 0.0
2015-Jul-07 09:27N 40°50' E 014°17'0 0.0
2015-Jul-07 08:33N 40°50' E 014°17'0 0.0
2015-Jul-07 07:33N 40°50' E 014°17'0 0.0
2015-Jul-06 09:33N 40°50' E 014°17'0 0.4
2015-Jul-06 08:33N 40°50' E 014°17'0 0.0
2015-Jul-06 07:33N 40°50' E 014°17'0 0.0
2015-Jul-06 06:33N 40°50' E 014°17'  
2015-Jul-03 21:13N 40°51' E 014°16'0 0.4
2015-Jul-03 20:31N 40°51' E 014°16'0 0.0
2015-Jul-03 19:33N 40°51' E 014°16'0 0.0
2015-Jul-03 18:32N 40°51' E 014°16'0 0.3
2015-Jul-03 17:32N 40°51' E 014°16'0 0.0
2015-Jul-03 16:21N 40°51' E 014°16'0 0.0
2015-Jul-03 15:33N 40°51' E 014°16'1 1.2
2015-Jul-03 14:33N 40°50' E 014°17'0 0.0
2015-Jul-03 13:33N 40°50' E 014°17'0 0.0
2015-Jul-03 12:33N 40°50' E 014°17'0 0.0
2015-Jul-03 11:33N 40°50' E 014°17'1 1.4
2015-Jul-03 10:33N 40°50' E 014°16'0 0.0
2015-Jul-03 09:33N 40°50' E 014°16'0 0.0
2015-Jul-03 08:33N 40°50' E 014°16'0 0.0
2015-Jul-03 07:33N 40°50' E 014°16'0 0.0
2015-Jul-02 15:05N 40°51' E 014°16'1 2.2
2015-Jul-02 14:33N 40°50' E 014°17'0 0.0
2015-Jul-02 13:33N 40°50' E 014°17'0 0.0
2015-Jul-02 12:33N 40°50' E 014°17'0 0.0
2015-Jul-02 11:33N 40°50' E 014°17'0 0.0
2015-Jul-02 10:33N 40°50' E 014°17'1 0.1
2015-Jul-01 17:10N 40°51' E 014°16'0 0.0
2015-Jul-01 13:29N 40°51' E 014°16'0 0.0
2015-Jul-01 12:27N 40°51' E 014°16'1 1.2
2015-Jul-01 11:33N 40°50' E 014°17'0 0.0
2015-Jul-01 10:33N 40°50' E 014°17'0 0.0
2015-Jul-01 09:33N 40°50' E 014°17'0 0.0
2015-Jul-01 08:33N 40°50' E 014°17'0 0.0
2015-Jul-01 07:33N 40°50' E 014°17'0 0.0
2015-Jul-01 06:32N 40°50' E 014°17'1 0.0
2015-Jun-29 13:18N 40°51' E 014°16'0 0.2
2015-Jun-29 11:04N 40°50' E 014°16'1 1.6
2015-Jun-29 10:31N 40°50' E 014°17'0 0.0
2015-Jun-29 09:33N 40°50' E 014°17'0 0.0
2015-Jun-29 08:30N 40°50' E 014°17'0 0.0
2015-Jun-29 07:26N 40°50' E 014°17'  
Track history (hours):
 
Tides and Currents Weather Stations Pressure Air Temp Water Temp Dewpoint Dewpoint Depression Visibility Wind Speed Wind Dir Waves Ship Positions

Marina Lobra

Last reported at 2015-Jul-08 03:33 UTC. Time now 2015-Jul-08 04:22 UTC.
Position N 40°35' E 014°15'.

Length 56 m; draft 3.2 m.

Type: Ship (hazmat cat C). MMSI: 247188300.

Date/timePositionNaut miles runAvg speedWind from/ knotsBaromVisibWave heightAir tempDewpointWater temp
2015-Jul-08 03:33N 40°35' E 014°15'1 1.4
2015-Jul-08 02:33N 40°33' E 014°14'0 0.0
2015-Jul-08 01:34N 40°33' E 014°14'0 0.0
2015-Jul-08 00:34N 40°33' E 014°14'0 0.0
2015-Jul-07 23:34N 40°33' E 014°14'0 0.0
2015-Jul-07 22:33N 40°33' E 014°14'0 0.0
2015-Jul-07 21:33N 40°33' E 014°14'0 0.0
2015-Jul-07 20:33N 40°33' E 014°14'0 0.0
2015-Jul-07 19:33N 40°33' E 014°14'1 0.8
2015-Jul-07 18:33N 40°34' E 014°15'5 5.5
2015-Jul-07 17:33N 40°39' E 014°17'5 5.3
2015-Jul-07 16:33N 40°45' E 014°17'5 5.0
2015-Jul-07 15:33N 40°50' E 014°18'1 0.8
2015-Jul-07 14:33N 40°50' E 014°17'0 0.0
2015-Jul-07 13:33N 40°50' E 014°17'0 0.0
2015-Jul-07 12:29N 40°50' E 014°17'0 0.0
2015-Jul-07 11:33N 40°50' E 014°17'0 0.0
2015-Jul-07 10:33N 40°50' E 014°17'0 0.0
2015-Jul-07 09:27N 40°50' E 014°17'0 0.0
2015-Jul-07 08:33N 40°50' E 014°17'0 0.0
2015-Jul-07 07:33N 40°50' E 014°17'0 0.0
2015-Jul-06 09:33N 40°50' E 014°17'0 0.4
2015-Jul-06 08:33N 40°50' E 014°17'0 0.0
2015-Jul-06 07:33N 40°50' E 014°17'0 0.0
2015-Jul-06 06:33N 40°50' E 014°17'  
2015-Jul-03 21:13N 40°51' E 014°16'0 0.4
2015-Jul-03 20:31N 40°51' E 014°16'0 0.0
2015-Jul-03 19:33N 40°51' E 014°16'0 0.0
2015-Jul-03 18:32N 40°51' E 014°16'0 0.3
2015-Jul-03 17:32N 40°51' E 014°16'0 0.0
2015-Jul-03 16:21N 40°51' E 014°16'0 0.0
2015-Jul-03 15:33N 40°51' E 014°16'1 1.2
2015-Jul-03 14:33N 40°50' E 014°17'0 0.0
2015-Jul-03 13:33N 40°50' E 014°17'0 0.0
2015-Jul-03 12:33N 40°50' E 014°17'0 0.0
2015-Jul-03 11:33N 40°50' E 014°17'1 1.4
2015-Jul-03 10:33N 40°50' E 014°16'0 0.0
2015-Jul-03 09:33N 40°50' E 014°16'0 0.0
2015-Jul-03 08:33N 40°50' E 014°16'0 0.0
2015-Jul-03 07:33N 40°50' E 014°16'0 0.0
2015-Jul-02 15:05N 40°51' E 014°16'1 2.2
2015-Jul-02 14:33N 40°50' E 014°17'0 0.0
2015-Jul-02 13:33N 40°50' E 014°17'0 0.0
2015-Jul-02 12:33N 40°50' E 014°17'0 0.0
2015-Jul-02 11:33N 40°50' E 014°17'0 0.0
2015-Jul-02 10:33N 40°50' E 014°17'1 0.1
2015-Jul-01 17:10N 40°51' E 014°16'0 0.0
2015-Jul-01 13:29N 40°51' E 014°16'0 0.0
2015-Jul-01 12:27N 40°51' E 014°16'1 1.2
2015-Jul-01 11:33N 40°50' E 014°17'0 0.0
2015-Jul-01 10:33N 40°50' E 014°17'0 0.0
2015-Jul-01 09:33N 40°50' E 014°17'0 0.0
2015-Jul-01 08:33N 40°50' E 014°17'0 0.0
2015-Jul-01 07:33N 40°50' E 014°17'0 0.0
2015-Jul-01 06:32N 40°50' E 014°17'1 0.0
2015-Jun-29 13:18N 40°51' E 014°16'0 0.2
2015-Jun-29 11:04N 40°50' E 014°16'1 1.6
2015-Jun-29 10:31N 40°50' E 014°17'0 0.0
2015-Jun-29 09:33N 40°50' E 014°17'0 0.0
2015-Jun-29 08:30N 40°50' E 014°17'0 0.0
2015-Jun-29 07:26N 40°50' E 014°17'  

Dump ship's entire track history